Terminal Aerodrome Forecast
Issued by NWS Norman, OK

Home | Current Version | Previous Version | Text Only | Print | Product List | Glossary On
Versions: 1 2 3 4 5 6 7 8 9 10 11 12 13 14 15 16 17 18 19 20 21 22 23 24 25 26 27
000
FTUS44 KOUN 172328
TAFSPS
TAF
KSPS 172328Z 1800/1824 16007KT P6SM SCT025 BKN100
     FM180400 16004KT P6SM FEW200
      TEMPO 1809/1813 2SM BR
     FM181900 15009KT P6SM SCT250=

USA.gov is the U.S. government's official web portal to all federal, state and local government web resources and services.